Time;durP1;ratioP1;P1;durP2;ratioP2;P2;SDS_P1;SDS_P2;PMS_P1;PMS_P2;Temp;Humidity;BMP_temperature;BMP_pressure;BME280_temperature;BME280_humidity;BME280_pressure;Samples;Min_cycle;Max_cycle;Signal;HPM_P1;HPM_P2
2023/07/25 00:01:01;;;;;;;;;;;;;;;19.90;57.73;98728.38;10329463;28;1898;-68
2023/07/25 00:05:56;;;;;;;;;;;;;;;19.89;57.70;98718.75;10330010;28;909;-68
2023/07/25 00:10:52;;;;;;;;;;;;;;;19.89;57.52;98725.84;10329784;28;861;-68
2023/07/25 00:15:48;;;;;;;;;;;;;;;19.88;57.64;98722.34;10329033;28;868;-68
2023/07/25 00:20:44;;;;;;;;;;;;;;;19.87;57.58;98733.88;10328748;28;1957;-68
2023/07/25 00:25:40;;;;;;;;;;;;;;;19.88;57.48;98746.16;10328124;28;881;-68
2023/07/25 00:30:36;;;;;;;;;;;;;;;19.88;57.57;98734.72;10329303;28;1211;-68
2023/07/25 00:35:32;;;;;;;;;;;;;;;19.87;57.58;98744.47;10328787;28;861;-68
2023/07/25 00:40:27;;;;;;;;;;;;;;;19.85;57.55;98745.50;10327276;28;1913;-68
2023/07/25 00:45:23;;;;;;;;;;;;;;;19.85;57.51;98750.81;10328361;28;810;-68
2023/07/25 00:50:19;;;;;;;;;;;;;;;19.84;57.47;98739.38;10328412;28;802;-68
2023/07/25 00:55:15;;;;;;;;;;;;;;;19.84;57.47;98747.31;10327602;28;861;-68
2023/07/25 01:00:11;;;;;;;;;;;;;;;19.84;57.56;98760.53;10327156;28;1902;-68
2023/07/25 01:05:07;;;;;;;;;;;;;;;19.83;57.47;98748.28;10327609;28;782;-68
2023/07/25 01:10:03;;;;;;;;;;;;;;;19.82;57.55;98745.72;10326793;28;795;-68
2023/07/25 01:14:58;;;;;;;;;;;;;;;19.81;57.55;98739.59;10326025;28;1175;-68
2023/07/25 01:19:54;;;;;;;;;;;;;;;19.81;57.42;98734.31;10326378;28;1937;-68
2023/07/25 01:24:50;;;;;;;;;;;;;;;19.81;57.46;98731.66;10326372;28;886;-68
2023/07/25 01:29:46;;;;;;;;;;;;;;;19.80;57.49;98727.31;10326259;28;1209;-68
2023/07/25 01:34:42;;;;;;;;;;;;;;;19.79;57.44;98715.06;10326857;28;878;-68
2023/07/25 01:39:38;;;;;;;;;;;;;;;19.79;57.46;98714.22;10325902;28;1989;-68
2023/07/25 01:44:34;;;;;;;;;;;;;;;19.79;57.40;98711.56;10326418;28;894;-68
2023/07/25 01:49:30;;;;;;;;;;;;;;;19.78;57.36;98708.09;10325631;28;797;-68
2023/07/25 01:54:25;;;;;;;;;;;;;;;19.78;57.51;98707.22;10325696;28;767;-68
2023/07/25 01:59:21;;;;;;;;;;;;;;;19.77;57.43;98703.72;10326012;28;1968;-68
2023/07/25 02:04:18;;;;;;;;;;;;;;;19.76;57.49;98699.41;10325339;28;936;-68
2023/07/25 02:09:14;;;;;;;;;;;;;;;19.76;57.32;98690.63;10325855;28;840;-68
2023/07/25 02:14:10;;;;;;;;;;;;;;;19.76;57.43;98688.81;10325203;28;872;-68
2023/07/25 02:19:05;;;;;;;;;;;;;;;19.76;57.46;98693.28;10325637;28;1905;-68
2023/07/25 02:24:01;;;;;;;;;;;;;;;19.74;57.50;98688.06;10324416;28;896;-68
2023/07/25 02:28:57;;;;;;;;;;;;;;;19.74;57.37;98690.72;10324924;28;934;-68
2023/07/25 02:33:53;;;;;;;;;;;;;;;19.73;57.36;98678.47;10325052;28;1496;-68
2023/07/25 02:38:49;;;;;;;;;;;;;;;19.73;57.26;98678.47;10324054;28;1910;-68
2023/07/25 02:43:45;;;;;;;;;;;;;;;19.72;57.34;98684.69;10324524;28;905;-68
2023/07/25 02:48:41;;;;;;;;;;;;;;;19.72;57.47;98678.56;10325174;28;944;-68
2023/07/25 02:53:37;;;;;;;;;;;;;;;19.72;57.32;98681.19;10324409;28;801;-68
2023/07/25 02:58:32;;;;;;;;;;;;;;;19.69;57.49;98682.25;10324805;28;1963;-68
2023/07/25 03:03:28;;;;;;;;;;;;;;;19.69;57.56;98674.31;10326075;28;1077;-68
2023/07/25 03:08:24;;;;;;;;;;;;;;;19.69;57.47;98679.59;10324800;28;951;-68
2023/07/25 03:13:20;;;;;;;;;;;;;;;19.68;57.45;98670.84;10324674;28;968;-68
2023/07/25 03:18:16;;;;;;;;;;;;;;;19.67;57.39;98679.69;10330662;28;1906;-68
2023/07/25 03:23:12;;;;;;;;;;;;;;;19.68;57.32;98680.56;10331079;28;946;-68
2023/07/25 03:28:08;;;;;;;;;;;;;;;19.68;57.37;98683.22;10331504;28;829;-68
2023/07/25 03:33:03;;;;;;;;;;;;;;;19.67;57.32;98685.00;10331589;28;1410;-68
2023/07/25 03:37:59;;;;;;;;;;;;;;;19.66;57.39;98687.72;10331075;28;1975;-68
2023/07/25 03:42:55;;;;;;;;;;;;;;;19.64;57.31;98693.09;10331546;28;853;-68
2023/07/25 03:47:51;;;;;;;;;;;;;;;19.64;57.47;98690.47;10330191;28;891;-68
2023/07/25 03:52:47;;;;;;;;;;;;;;;19.64;57.47;98690.47;10330598;28;875;-68
2023/07/25 03:57:43;;;;;;;;;;;;;;;19.65;57.52;98686.03;10329721;28;1948;-68
2023/07/25 04:02:38;;;;;;;;;;;;;;;19.63;57.34;98672.91;10328865;28;984;-68
2023/07/25 04:07:34;;;;;;;;;;;;;;;19.62;57.39;98676.53;10312494;28;1635;-68
2023/07/25 04:12:30;;;;;;;;;;;;;;;19.62;57.45;98684.44;10329239;28;920;-68
2023/07/25 04:17:26;;;;;;;;;;;;;;;19.63;57.22;98682.66;10328873;28;1965;-68
2023/07/25 04:22:22;;;;;;;;;;;;;;;19.60;57.47;98678.41;10329719;28;790;-68
2023/07/25 04:27:18;;;;;;;;;;;;;;;19.60;57.27;98672.28;10328595;28;806;-68
2023/07/25 04:32:14;;;;;;;;;;;;;;;19.61;57.20;98674.81;10328584;28;1181;-68
2023/07/25 04:37:09;;;;;;;;;;;;;;;19.66;57.03;98674.50;10328134;28;1977;-68
2023/07/25 04:42:06;;;;;;;;;;;;;;;19.72;57.01;98682.03;10327327;28;1092;-68
2023/07/25 04:47:02;;;;;;;;;;;;;;;19.75;57.01;98684.47;10327789;28;931;-68
2023/07/25 04:51:58;;;;;;;;;;;;;;;19.79;56.82;98685.13;10327582;28;879;-68
2023/07/25 04:56:54;;;;;;;;;;;;;;;19.81;56.73;98686.72;10327552;28;979;-68
2023/07/25 05:01:50;;;;;;;;;;;;;;;19.85;56.69;98682.88;10327217;28;1997;-68
2023/07/25 05:06:46;;;;;;;;;;;;;;;19.88;56.60;98677.38;10327037;28;882;-68
2023/07/25 05:11:42;;;;;;;;;;;;;;;19.90;56.67;98677.28;10326816;28;886;-68
2023/07/25 05:16:38;;;;;;;;;;;;;;;19.90;56.58;98686.06;10327393;28;805;-68
2023/07/25 05:21:33;;;;;;;;;;;;;;;19.90;56.64;98680.78;10327033;28;1933;-68
2023/07/25 05:26:29;;;;;;;;;;;;;;;19.90;56.47;98686.06;10326739;28;930;-68
2023/07/25 05:31:25;;;;;;;;;;;;;;;19.90;56.79;98686.06;10326046;28;1323;-68
2023/07/25 05:36:21;;;;;;;;;;;;;;;19.89;56.66;98687.03;10327309;28;947;-68
2023/07/25 05:41:17;;;;;;;;;;;;;;;19.89;56.75;98694.97;10324975;28;1918;-68
2023/07/25 05:46:13;;;;;;;;;;;;;;;19.90;56.73;98701.94;10326015;28;830;-68
2023/07/25 05:51:09;;;;;;;;;;;;;;;19.89;56.65;98688.84;10325682;28;940;-68
2023/07/25 05:56:05;;;;;;;;;;;;;;;19.90;56.75;98693.16;10326192;28;798;-68
2023/07/25 06:01:01;;;;;;;;;;;;;;;19.89;56.73;98699.41;10325422;28;1961;-68
2023/07/25 06:05:57;;;;;;;;;;;;;;;19.89;56.59;98705.53;10326506;28;872;-68
2023/07/25 06:10:53;;;;;;;;;;;;;;;19.91;56.53;98713.34;10324681;28;1028;-68
2023/07/25 06:15:49;;;;;;;;;;;;;;;19.92;56.72;98723.00;10325289;28;863;-68
2023/07/25 06:20:44;;;;;;;;;;;;;;;19.92;56.65;98723.84;10324399;28;1898;-68
2023/07/25 06:25:40;;;;;;;;;;;;;;;19.92;56.58;98721.19;10324215;28;944;-68
2023/07/25 06:30:36;;;;;;;;;;;;;;;19.94;56.49;98718.47;10324965;28;1338;-68
2023/07/25 06:35:32;;;;;;;;;;;;;;;19.96;56.58;98713.88;10324733;28;898;-68
2023/07/25 06:40:28;;;;;;;;;;;;;;;19.97;56.35;98714.75;10325181;28;1918;-68
2023/07/25 06:45:24;;;;;;;;;;;;;;;19.97;56.44;98712.13;10324647;28;829;-68
2023/07/25 06:50:20;;;;;;;;;;;;;;;19.97;56.37;98712.94;10326700;28;819;-68
2023/07/25 06:55:19;;;;;;;;;;;;;;;19.98;56.42;98724.38;10332768;28;887;-68
2023/07/25 07:00:14;;;;;;;;;;;;;;;19.96;56.48;98732.41;10331919;28;1902;-68
2023/07/25 07:05:10;;;;;;;;;;;;;;;19.96;56.50;98734.19;10331814;28;809;-68
2023/07/25 07:10:06;;;;;;;;;;;;;;;19.95;56.41;98727.22;10331559;28;799;-68
2023/07/25 07:15:03;;;;;;;;;;;;;;;19.95;56.45;98732.53;10331360;28;897;-68
2023/07/25 07:20:00;;;;;;;;;;;;;;;19.95;56.47;98728.06;10331775;28;1906;-69
2023/07/25 07:24:56;;;;;;;;;;;;;;;19.96;56.49;98727.09;10331025;28;859;-69
2023/07/25 07:29:52;;;;;;;;;;;;;;;19.98;56.27;98725.22;10330755;28;1573;-69
2023/07/25 07:34:48;;;;;;;;;;;;;;;19.97;56.42;98728.81;10331072;28;810;-68
2023/07/25 07:39:44;;;;;;;;;;;;;;;19.96;56.35;98732.41;10330913;28;1914;-68
2023/07/25 07:44:39;;;;;;;;;;;;;;;19.96;56.31;98731.56;10330354;28;925;-68
2023/07/25 07:49:35;;;;;;;;;;;;;;;19.92;56.57;98729.13;10330775;28;853;-69
2023/07/25 07:54:33;;;;;;;;;;;;;;;19.92;56.41;98730.94;10330214;28;960;-69
2023/07/25 07:59:28;;;;;;;;;;;;;;;19.92;56.58;98730.94;10329643;28;1898;-68
2023/07/25 08:04:24;;;;;;;;;;;;;;;19.90;56.37;98733.66;10329136;28;956;-68
2023/07/25 08:09:20;;;;;;;;;;;;;;;19.90;56.52;98732.81;10329942;28;903;-68
2023/07/25 08:14:16;;;;;;;;;;;;;;;19.91;56.57;98737.16;10329152;28;810;-69
2023/07/25 08:19:12;;;;;;;;;;;;;;;19.91;56.49;98731.88;10329533;28;1902;-68
2023/07/25 08:24:08;;;;;;;;;;;;;;;19.92;56.37;98742.34;10328182;28;1131;-68
2023/07/25 08:29:04;;;;;;;;;;;;;;;19.94;56.32;98750.19;10328615;28;983;-69
2023/07/25 08:33:59;;;;;;;;;;;;;;;19.95;56.45;98746.59;10328851;28;1385;-69
2023/07/25 08:38:56;;;;;;;;;;;;;;;19.96;56.13;98750.06;10328139;28;1976;-69
2023/07/25 08:43:52;;;;;;;;;;;;;;;19.95;56.35;98751.88;10327901;28;874;-69
2023/07/25 08:48:48;;;;;;;;;;;;;;;19.95;56.32;98743.09;10328333;28;821;-66
2023/07/25 08:53:44;;;;;;;;;;;;;;;19.89;56.50;98736.44;10328192;28;806;-66
2023/07/25 08:58:42;;;;;;;;;;;;;;;19.84;56.53;98744.69;10327299;28;1965;-66
2023/07/25 09:03:38;;;;;;;;;;;;;;;19.81;56.42;98746.69;10327957;28;961;-66
2023/07/25 09:08:34;;;;;;;;;;;;;;;19.78;56.61;98745.09;10327237;28;876;-66
2023/07/25 09:13:30;;;;;;;;;;;;;;;19.76;56.60;98744.34;10327272;28;849;-66
2023/07/25 09:18:26;;;;;;;;;;;;;;;19.74;56.50;98751.53;10327001;28;1893;-66
2023/07/25 09:23:22;;;;;;;;;;;;;;;19.74;56.35;98754.19;10326426;28;965;-66
2023/07/25 09:28:20;;;;;;;;;;;;;;;19.76;56.20;98754.94;10326291;28;1013;-66
2023/07/25 09:33:16;;;;;;;;;;;;;;;19.75;56.16;98755.84;10326558;28;1093;-66
2023/07/25 09:38:11;;;;;;;;;;;;;;;19.74;55.94;98748.88;10326564;28;1967;-66
2023/07/25 09:43:07;;;;;;;;;;;;;;;19.76;56.09;98752.28;10325865;28;901;-66
2023/07/25 09:48:03;;;;;;;;;;;;;;;19.77;56.01;98755.75;10326429;28;761;-66
2023/07/25 09:52:59;;;;;;;;;;;;;;;19.76;56.08;98754.94;10325627;28;977;-66
2023/07/25 09:57:55;;;;;;;;;;;;;;;19.76;56.06;98760.22;10325529;28;1893;-66
2023/07/25 10:02:51;;;;;;;;;;;;;;;19.76;55.84;98759.38;10325473;28;873;-66
2023/07/25 10:07:47;;;;;;;;;;;;;;;19.74;55.95;98751.53;10325470;28;871;-66
2023/07/25 10:12:42;;;;;;;;;;;;;;;19.73;55.74;98752.50;10325048;28;867;-66
2023/07/25 10:17:38;;;;;;;;;;;;;;;19.70;55.90;98745.63;10325057;28;1961;-66
2023/07/25 10:22:34;;;;;;;;;;;;;;;19.70;55.81;98748.25;10324794;28;943;-66
2023/07/25 10:27:30;;;;;;;;;;;;;;;19.72;55.89;98752.59;10331251;28;850;-66
2023/07/25 10:32:26;;;;;;;;;;;;;;;19.73;55.85;98741.03;10332774;28;1252;-67
2023/07/25 10:37:22;;;;;;;;;;;;;;;19.74;55.93;98748.03;10332029;28;1914;-66
2023/07/25 10:42:18;;;;;;;;;;;;;;;19.72;56.19;98745.50;10332636;28;918;-66
2023/07/25 10:47:14;;;;;;;;;;;;;;;19.70;56.47;98748.25;10332986;28;791;-66
2023/07/25 10:52:10;;;;;;;;;;;;;;;19.71;56.38;98743.81;10331766;28;845;-66
2023/07/25 10:57:06;;;;;;;;;;;;;;;19.70;56.54;98742.09;10332192;28;761;-66
2023/07/25 11:02:02;;;;;;;;;;;;;;;19.69;56.52;98735.13;10331622;28;1890;-64
2023/07/25 11:06:58;;;;;;;;;;;;;;;19.67;56.68;98737.88;10332878;28;947;-65
2023/07/25 11:11:54;;;;;;;;;;;;;;;19.69;56.87;98735.97;10331347;28;851;-64
2023/07/25 11:16:49;;;;;;;;;;;;;;;19.69;56.87;98732.47;10331419;28;794;-64
2023/07/25 11:21:45;;;;;;;;;;;;;;;19.70;56.85;98734.16;10331268;28;1893;-65
2023/07/25 11:26:43;;;;;;;;;;;;;;;19.72;56.90;98728.78;10330964;28;954;-65
2023/07/25 11:31:42;;;;;;;;;;;;;;;19.72;56.93;98740.22;10331664;28;1144;-65
2023/07/25 11:36:38;;;;;;;;;;;;;;;19.72;56.76;98739.38;10330570;28;981;-65
2023/07/25 11:41:34;;;;;;;;;;;;;;;19.68;56.67;98744.03;10330392;28;1964;-66
2023/07/25 11:46:30;;;;;;;;;;;;;;;19.69;56.73;98749.19;10330905;28;871;-67
2023/07/25 11:51:26;;;;;;;;;;;;;;;19.70;56.74;98756.19;10330769;28;829;-65
2023/07/25 11:56:22;;;;;;;;;;;;;;;19.69;57.12;98761.56;10330260;28;1026;-65
2023/07/25 12:01:18;;;;;;;;;;;;;;;19.68;57.00;98757.25;10329374;28;1898;-66
2023/07/25 12:06:14;;;;;;;;;;;;;;;19.69;57.08;98769.50;10329571;28;789;-65
2023/07/25 12:11:10;;;;;;;;;;;;;;;19.68;57.14;98771.31;10329366;28;898;-66
2023/07/25 12:16:06;;;;;;;;;;;;;;;19.70;57.25;98777.34;10329153;28;949;-65
2023/07/25 12:21:02;;;;;;;;;;;;;;;19.69;57.41;98782.72;10329516;28;1902;-66
2023/07/25 12:25:58;;;;;;;;;;;;;;;19.67;57.51;98780.16;10328864;28;779;-67
2023/07/25 12:30:53;;;;;;;;;;;;;;;19.68;57.44;98783.69;10328938;28;1290;-65
2023/07/25 12:35:50;;;;;;;;;;;;;;;19.66;57.46;98780.25;10328403;28;944;-66
2023/07/25 12:40:46;;;;;;;;;;;;;;;19.66;57.38;98782.88;10328175;28;1906;-66
2023/07/25 12:45:42;;;;;;;;;;;;;;;19.65;57.61;98782.06;10327945;28;829;-66
2023/07/25 12:50:39;;;;;;;;;;;;;;;19.65;57.32;98789.13;10327701;28;811;-66
2023/07/25 12:55:35;;;;;;;;;;;;;;;19.66;57.25;98796.13;10327735;28;899;-66
2023/07/25 13:00:30;;;;;;;;;;;;;;;19.66;57.35;98794.34;10326685;28;1945;-66
2023/07/25 13:05:27;;;;;;;;;;;;;;;19.70;57.36;98787.03;10327826;28;840;-66
2023/07/25 13:10:23;;;;;;;;;;;;;;;19.70;57.23;98793.19;10327818;28;815;-64
2023/07/25 13:15:18;;;;;;;;;;;;;;;19.73;57.12;98788.63;10327425;28;842;-65
2023/07/25 13:20:14;;;;;;;;;;;;;;;19.73;57.14;98802.72;10325777;28;1890;-65
2023/07/25 13:25:11;;;;;;;;;;;;;;;19.76;57.08;98796.38;10326072;28;941;-66
2023/07/25 13:30:07;;;;;;;;;;;;;;;19.76;57.00;98799.88;10325787;28;1104;-66
2023/07/25 13:35:03;;;;;;;;;;;;;;;19.79;56.95;98802.31;10326137;28;778;-66
2023/07/25 13:39:59;;;;;;;;;;;;;;;19.80;56.93;98793.41;10326015;28;1906;-66
2023/07/25 13:44:55;;;;;;;;;;;;;;;19.80;56.92;98792.56;10327052;28;858;-66
2023/07/25 13:49:51;;;;;;;;;;;;;;;19.80;56.97;98806.63;10325366;28;881;-66
2023/07/25 13:54:47;;;;;;;;;;;;;;;19.80;56.96;98803.16;10324769;28;865;-66
2023/07/25 13:59:43;;;;;;;;;;;;;;;19.80;57.11;98797.88;10324433;28;1890;-66
2023/07/25 14:04:41;;;;;;;;;;;;;;;19.80;57.09;98792.56;10326413;28;863;-66
2023/07/25 14:09:37;;;;;;;;;;;;;;;19.80;57.17;98796.06;10325765;28;846;-66
2023/07/25 14:14:33;;;;;;;;;;;;;;;19.82;57.05;98794.16;10324406;28;988;-66
2023/07/25 14:19:29;;;;;;;;;;;;;;;19.84;56.92;98796.72;10325479;28;1910;-66
2023/07/25 14:24:25;;;;;;;;;;;;;;;19.87;56.95;98810.56;10324835;28;786;-66
2023/07/25 14:29:21;;;;;;;;;;;;;;;19.89;56.72;98818.41;10325347;28;823;-67
2023/07/25 14:34:17;;;;;;;;;;;;;;;19.88;56.80;98825.47;10323839;28;1171;-66
2023/07/25 14:39:13;;;;;;;;;;;;;;;19.90;56.57;98822.75;10324297;28;1902;-66
2023/07/25 14:44:08;;;;;;;;;;;;;;;19.93;56.51;98822.53;10324947;28;810;-66
2023/07/25 14:49:04;;;;;;;;;;;;;;;19.91;56.50;98830.59;10324920;28;810;-66
2023/07/25 14:54:00;;;;;;;;;;;;;;;19.91;56.54;98841.16;10324479;28;915;-63
2023/07/25 14:58:56;;;;;;;;;;;;;;;19.96;56.50;98842.66;10324009;28;1889;-63
2023/07/25 15:03:52;;;;;;;;;;;;;;;19.95;56.61;98841.81;10325428;28;1121;-63
2023/07/25 15:08:48;;;;;;;;;;;;;;;19.95;56.63;98838.31;10323362;28;963;-63
2023/07/25 15:13:44;;;;;;;;;;;;;;;19.95;56.28;98851.53;10329595;28;913;-63
2023/07/25 15:18:41;;;;;;;;;;;;;;;19.96;56.41;98848.78;10332095;28;1891;-63
2023/07/25 15:23:36;;;;;;;;;;;;;;;20.00;56.33;98857.38;10331829;28;914;-63
2023/07/25 15:28:32;;;;;;;;;;;;;;;20.01;56.15;98851.13;10330380;28;845;-63
2023/07/25 15:33:28;;;;;;;;;;;;;;;19.99;55.93;98863.59;10331292;28;1132;-66
2023/07/25 15:38:24;;;;;;;;;;;;;;;20.02;56.10;98863.41;10331251;28;1927;-66
2023/07/25 15:43:20;;;;;;;;;;;;;;;20.01;56.05;98859.06;10331169;28;972;-66
2023/07/25 15:48:16;;;;;;;;;;;;;;;19.99;56.13;98861.81;10330271;28;809;-66
2023/07/25 15:53:12;;;;;;;;;;;;;;;20.01;56.32;98865.19;10331381;28;908;-65
2023/07/25 15:58:08;;;;;;;;;;;;;;;20.03;56.12;98865.09;10330007;28;1898;-65
2023/07/25 16:03:04;;;;;;;;;;;;;;;20.02;56.20;98861.63;10312720;28;722;-66
2023/07/25 16:08:01;;;;;;;;;;;;;;;20.02;56.03;98858.13;10329592;28;912;-65
2023/07/25 16:12:57;;;;;;;;;;;;;;;20.03;56.13;98865.09;10330068;28;856;-66
2023/07/25 16:17:52;;;;;;;;;;;;;;;20.05;56.20;98849.97;10329121;28;1902;-66
2023/07/25 16:22:48;;;;;;;;;;;;;;;20.02;56.22;98852.84;10328809;28;821;-66
2023/07/25 16:27:44;;;;;;;;;;;;;;;20.01;56.28;98856.41;10329383;28;849;-66
2023/07/25 16:32:40;;;;;;;;;;;;;;;20.00;56.19;98854.72;10330356;28;1530;-66
2023/07/25 16:37:36;;;;;;;;;;;;;;;20.00;56.23;98865.31;10328387;28;1910;-66
2023/07/25 16:42:32;;;;;;;;;;;;;;;20.00;56.26;98862.66;10328772;28;937;-66
2023/07/25 16:47:29;;;;;;;;;;;;;;;20.01;56.34;98859.91;10328518;28;853;-66
2023/07/25 16:52:25;;;;;;;;;;;;;;;20.02;56.13;98855.47;10328281;28;852;-66
2023/07/25 16:57:21;;;;;;;;;;;;;;;20.02;56.14;98856.31;10328122;28;859;-65
2023/07/25 17:02:17;;;;;;;;;;;;;;;20.02;56.21;98856.31;10326652;28;1885;-66
2023/07/25 17:07:13;;;;;;;;;;;;;;;20.03;56.07;98870.41;10327194;28;788;-66
2023/07/25 17:12:08;;;;;;;;;;;;;;;20.03;56.04;98863.28;10327615;28;795;-66
2023/07/25 17:17:04;;;;;;;;;;;;;;;20.05;55.94;98873.78;10327370;28;877;-66
2023/07/25 17:22:00;;;;;;;;;;;;;;;20.04;56.07;98872.94;10327122;28;1894;-66
2023/07/25 17:26:56;;;;;;;;;;;;;;;20.05;56.05;98881.72;10327066;28;829;-66
2023/07/25 17:31:52;;;;;;;;;;;;;;;20.05;55.73;98889.66;10325960;28;1215;-66
2023/07/25 17:36:48;;;;;;;;;;;;;;;20.06;55.75;98894.00;10326850;28;1000;-66
2023/07/25 17:41:44;;;;;;;;;;;;;;;20.07;55.71;98908.94;10325646;28;1906;-66
2023/07/25 17:46:39;;;;;;;;;;;;;;;20.08;55.88;98910.63;10325959;28;823;-66
2023/07/25 17:51:35;;;;;;;;;;;;;;;20.09;55.85;98930.81;10325802;28;889;-66
2023/07/25 17:56:31;;;;;;;;;;;;;;;20.10;55.91;98933.38;10325111;28;901;-66
2023/07/25 18:01:27;;;;;;;;;;;;;;;20.09;56.08;98949.34;10325491;28;1894;-66
2023/07/25 18:06:23;;;;;;;;;;;;;;;20.09;56.06;98957.28;10326126;28;775;-66
2023/07/25 18:11:19;;;;;;;;;;;;;;;20.10;55.84;98961.63;10324860;28;1039;-66
2023/07/25 18:16:15;;;;;;;;;;;;;;;20.10;56.21;98956.34;10325892;28;813;-66
2023/07/25 18:21:10;;;;;;;;;;;;;;;20.10;56.21;98954.53;10325423;28;1960;-66
2023/07/25 18:26:06;;;;;;;;;;;;;;;20.11;56.24;98969.47;10325287;28;897;-66
2023/07/25 18:31:02;;;;;;;;;;;;;;;20.12;56.10;98975.59;10325574;28;1169;-66
2023/07/25 18:35:58;;;;;;;;;;;;;;;20.11;56.20;98985.34;10325523;28;892;-66
2023/07/25 18:40:54;;;;;;;;;;;;;;;20.12;56.28;98983.53;10324723;28;1967;-66
2023/07/25 18:45:50;;;;;;;;;;;;;;;20.10;56.27;98988.94;10326720;28;805;-66
2023/07/25 18:50:46;;;;;;;;;;;;;;;20.10;56.14;98986.28;10332563;28;770;-66
2023/07/25 18:55:41;;;;;;;;;;;;;;;20.10;56.14;98991.59;10332988;28;798;-66
2023/07/25 19:00:37;;;;;;;;;;;;;;;20.11;56.18;99005.66;10332695;28;1890;-66
2023/07/25 19:05:33;;;;;;;;;;;;;;;20.12;56.01;99008.22;10331978;28;779;-66
2023/07/25 19:10:29;;;;;;;;;;;;;;;20.13;56.01;99019.63;10332572;28;845;-66
2023/07/25 19:15:25;;;;;;;;;;;;;;;20.14;55.94;99023.97;10332391;28;770;-66
2023/07/25 19:20:21;;;;;;;;;;;;;;;20.14;56.02;99034.56;10331290;28;1886;-66
2023/07/25 19:25:17;;;;;;;;;;;;;;;20.13;55.99;99038.16;10331308;28;782;-66
2023/07/25 19:30:13;;;;;;;;;;;;;;;20.13;56.01;99049.59;10331306;28;1116;-66
2023/07/25 19:35:09;;;;;;;;;;;;;;;20.13;56.02;99059.31;10330970;28;897;-66
2023/07/25 19:40:06;;;;;;;;;;;;;;;20.12;55.94;99060.25;10331358;28;1910;-66
2023/07/25 19:45:02;;;;;;;;;;;;;;;20.10;56.03;99064.81;10330678;28;866;-67
2023/07/25 19:49:58;;;;;;;;;;;;;;;20.08;56.12;99069.34;10330423;28;948;-66
2023/07/25 19:54:54;;;;;;;;;;;;;;;20.07;56.12;99075.59;10330859;28;884;-66
2023/07/25 19:59:50;;;;;;;;;;;;;;;20.07;56.27;99088.81;10329305;28;1961;-66
2023/07/25 20:04:45;;;;;;;;;;;;;;;20.05;56.33;99080.13;10331054;28;876;-66
2023/07/25 20:09:41;;;;;;;;;;;;;;;20.03;56.33;99096.09;10330232;28;1154;-66
2023/07/25 20:14:37;;;;;;;;;;;;;;;20.03;56.20;99100.53;10329360;28;829;-66
2023/07/25 20:19:33;;;;;;;;;;;;;;;20.00;56.23;99104.22;10328551;28;1897;-66
2023/07/25 20:24:29;;;;;;;;;;;;;;;20.00;56.35;99108.66;10328418;28;778;-66
2023/07/25 20:29:26;;;;;;;;;;;;;;;19.99;56.17;99110.47;10328827;28;766;-66
2023/07/25 20:34:22;;;;;;;;;;;;;;;19.98;56.14;99119.34;10328799;28;1294;-66
2023/07/25 20:39:18;;;;;;;;;;;;;;;19.99;56.20;99136.06;10328941;28;1922;-66
2023/07/25 20:44:14;;;;;;;;;;;;;;;19.95;56.28;99138.03;10328950;28;964;-66
2023/07/25 20:49:10;;;;;;;;;;;;;;;19.95;56.34;99139.84;10327935;28;861;-66
2023/07/25 20:54:06;;;;;;;;;;;;;;;19.95;56.20;99142.50;10327268;28;1035;-66
2023/07/25 20:59:02;;;;;;;;;;;;;;;19.93;56.21;99148.72;10327448;28;1894;-66
2023/07/25 21:03:57;;;;;;;;;;;;;;;19.92;56.24;99154.13;10326806;28;841;-66
2023/07/25 21:08:53;;;;;;;;;;;;;;;19.90;56.29;99162.13;10326843;28;884;-66
2023/07/25 21:13:49;;;;;;;;;;;;;;;19.89;56.23;99159.59;10327637;28;845;-66
2023/07/25 21:18:45;;;;;;;;;;;;;;;19.89;56.13;99162.25;10326707;28;1949;-66
2023/07/25 21:23:41;;;;;;;;;;;;;;;19.88;56.50;99164.00;10326644;28;861;-66
2023/07/25 21:28:37;;;;;;;;;;;;;;;19.85;56.39;99166.84;10327308;28;913;-66
2023/07/25 21:33:33;;;;;;;;;;;;;;;19.85;56.30;99174.78;10326542;28;1324;-66
2023/07/25 21:38:28;;;;;;;;;;;;;;;19.83;56.59;99175.81;10326138;28;1971;-66
2023/07/25 21:43:24;;;;;;;;;;;;;;;19.82;56.50;99184.72;10326692;28;817;-66
2023/07/25 21:48:20;;;;;;;;;;;;;;;19.80;56.63;99184.78;10325989;28;750;-66
2023/07/25 21:53:16;;;;;;;;;;;;;;;19.79;56.62;99193.69;10325968;28;853;-66
2023/07/25 21:58:12;;;;;;;;;;;;;;;19.78;56.38;99199.91;10326286;28;1894;-66
2023/07/25 22:03:08;;;;;;;;;;;;;;;19.78;56.69;99201.69;10325603;28;786;-66
2023/07/25 22:08:04;;;;;;;;;;;;;;;19.76;56.56;99207.09;10325428;28;990;-66
2023/07/25 22:13:00;;;;;;;;;;;;;;;19.74;56.50;99206.31;10325427;28;785;-66
2023/07/25 22:17:56;;;;;;;;;;;;;;;19.73;56.51;99206.41;10325172;28;1894;-65
2023/07/25 22:22:52;;;;;;;;;;;;;;;19.73;56.75;99212.56;10312331;28;738;-66
2023/07/25 22:27:48;;;;;;;;;;;;;;;19.70;56.64;99203.03;10333551;28;802;-66
2023/07/25 22:32:46;;;;;;;;;;;;;;;19.69;56.59;99209.22;10333263;28;1293;-69
2023/07/25 22:37:42;;;;;;;;;;;;;;;19.69;56.58;99211.03;10333474;28;810;-68
2023/07/25 22:42:38;;;;;;;;;;;;;;;19.66;56.39;99217.34;10332854;28;1905;-69
2023/07/25 22:47:34;;;;;;;;;;;;;;;19.65;56.56;99220.91;10332184;28;1054;-69
2023/07/25 22:52:30;;;;;;;;;;;;;;;19.63;56.46;99217.50;10331992;28;914;-69
2023/07/25 22:57:25;;;;;;;;;;;;;;;19.63;56.69;99214.88;10332370;28;764;-69
2023/07/25 23:02:21;;;;;;;;;;;;;;;19.63;56.74;99221.97;10332740;28;1953;-69
2023/07/25 23:07:17;;;;;;;;;;;;;;;19.62;56.57;99230.81;10332568;28;871;-69
2023/07/25 23:12:13;;;;;;;;;;;;;;;19.61;56.68;99223.84;10332401;28;841;-69
2023/07/25 23:17:09;;;;;;;;;;;;;;;19.60;56.54;99225.63;10331669;28;922;-69
2023/07/25 23:22:05;;;;;;;;;;;;;;;19.59;56.65;99223.06;10331297;28;1890;-69
2023/07/25 23:27:01;;;;;;;;;;;;;;;19.58;56.64;99224.88;10331227;28;760;-69
2023/07/25 23:31:56;;;;;;;;;;;;;;;19.57;56.70;99225.81;10332115;28;1395;-69
2023/07/25 23:36:54;;;;;;;;;;;;;;;19.57;56.76;99215.25;10330302;28;975;-69
2023/07/25 23:41:50;;;;;;;;;;;;;;;19.57;56.62;99231.09;10331219;28;1910;-69
2023/07/25 23:46:46;;;;;;;;;;;;;;;19.56;56.62;99228.53;10330509;28;950;-69
2023/07/25 23:51:42;;;;;;;;;;;;;;;19.55;56.72;99235.63;10330993;28;940;-69
2023/07/25 23:56:40;;;;;;;;;;;;;;;19.55;56.76;99232.13;10329792;28;888;-69
